createdAt,value
2023-01-17T00:02:44.563Z,80.24
2023-01-17T00:05:32.090Z,80.33
2023-01-17T00:08:20.291Z,80.04
2023-01-17T00:10:49.312Z,79.72
2023-01-17T00:13:21.052Z,79.56
2023-01-17T00:15:50.333Z,80.09
2023-01-17T00:18:22.675Z,80.11
2023-01-17T00:21:13.554Z,79.80
2023-01-17T00:23:57.197Z,79.58
2023-01-17T00:26:26.973Z,79.87
2023-01-17T00:28:58.434Z,80.22
2023-01-17T00:31:30.316Z,79.94
2023-01-17T00:33:58.901Z,79.62
2023-01-17T00:36:34.257Z,79.50
2023-01-17T00:39:09.476Z,79.48
2023-01-17T00:41:40.948Z,79.82
2023-01-17T00:44:28.872Z,79.48
2023-01-17T00:47:16.229Z,78.98
2023-01-17T00:50:03.729Z,78.60
2023-01-17T00:52:54.100Z,78.29
2023-01-17T00:55:44.944Z,78.47
2023-01-17T00:58:33.357Z,78.45
2023-01-17T01:01:25.090Z,78.14
2023-01-17T01:04:12.819Z,78.02
2023-01-17T01:07:00.480Z,78.36
2023-01-17T01:09:48.532Z,78.23
2023-01-17T01:12:35.547Z,77.76
2023-01-17T01:15:33.346Z,77.85
2023-01-17T01:18:25.622Z,78.08
2023-01-17T01:21:12.943Z,78.74
2023-01-17T01:24:00.624Z,78.42
2023-01-17T01:26:49.053Z,77.55
2023-01-17T01:29:46.436Z,77.40
2023-01-17T01:32:33.756Z,77.35
2023-01-17T01:35:04.998Z,77.62
2023-01-17T01:37:34.205Z,77.81
2023-01-17T01:40:05.129Z,77.35
2023-01-17T01:42:34.308Z,77.05
2023-01-17T01:45:15.695Z,77.45
2023-01-17T01:47:45.204Z,77.50
2023-01-17T01:50:15.029Z,77.59
2023-01-17T01:52:54.986Z,77.87
2023-01-17T01:55:31.859Z,77.06
2023-01-17T01:58:04.336Z,77.12
2023-01-17T02:00:40.628Z,77.27
2023-01-17T02:03:21.599Z,77.63
2023-01-17T02:05:54.193Z,77.43
2023-01-17T02:08:24.785Z,77.27
2023-01-17T02:10:54.178Z,77.36
2023-01-17T02:13:23.535Z,77.30
2023-01-17T02:16:03.774Z,77.64
2023-01-17T02:18:48.268Z,77.55
2023-01-17T02:21:24.099Z,77.24
2023-01-17T02:24:21.691Z,76.66
2023-01-17T02:26:59.858Z,76.91
2023-01-17T02:30:03.755Z,77.23
2023-01-17T02:32:56.414Z,77.19
2023-01-17T02:35:34.912Z,76.52
2023-01-17T02:38:17.499Z,76.67
2023-01-17T02:40:49.582Z,76.80
2023-01-17T02:43:21.770Z,77.17
2023-01-17T02:45:55.344Z,76.71
2023-01-17T02:48:28.167Z,76.72
2023-01-17T02:51:24.379Z,76.64
2023-01-17T02:54:17.640Z,77.01
2023-01-17T02:56:57.285Z,77.48
2023-01-17T02:59:40.199Z,77.70
2023-01-17T03:02:20.133Z,77.26
2023-01-17T03:04:55.403Z,77.20
2023-01-17T03:07:29.481Z,77.13
2023-01-17T03:10:02.160Z,77.85
2023-01-17T03:12:33.522Z,77.75
2023-01-17T03:15:12.435Z,77.34
2023-01-17T03:17:45.830Z,77.35
2023-01-17T03:20:18.137Z,77.07
2023-01-17T03:22:47.245Z,77.39
2023-01-17T03:25:19.878Z,77.66
2023-01-17T03:27:49.183Z,77.84
2023-01-17T03:30:21.146Z,77.69
2023-01-17T03:32:51.089Z,77.24
2023-01-17T03:35:23.024Z,77.42
2023-01-17T03:37:52.017Z,77.43
2023-01-17T03:40:21.632Z,77.62
2023-01-17T03:42:50.675Z,77.91
2023-01-17T03:45:20.023Z,77.73
2023-01-17T03:47:48.807Z,77.30
2023-01-17T03:50:20.801Z,76.93
2023-01-17T03:52:53.041Z,76.95
2023-01-17T03:55:21.975Z,77.41
2023-01-17T03:57:51.745Z,77.55
2023-01-17T04:00:24.844Z,77.72
2023-01-17T04:02:54.810Z,77.16
2023-01-17T04:05:24.888Z,76.78
2023-01-17T04:07:53.993Z,76.76
2023-01-17T04:10:26.348Z,76.73
2023-01-17T04:12:55.212Z,77.09
2023-01-17T04:15:24.206Z,77.30
2023-01-17T04:17:53.313Z,77.31
2023-01-17T04:20:32.062Z,76.88
2023-01-17T04:23:01.864Z,76.65
2023-01-17T04:25:31.597Z,76.86
2023-01-17T04:28:03.752Z,77.67
2023-01-17T04:30:33.334Z,78.00
2023-01-17T04:33:05.832Z,77.49
2023-01-17T04:35:35.439Z,77.23
2023-01-17T04:38:08.331Z,77.18
2023-01-17T04:40:37.177Z,77.14
2023-01-17T04:43:06.444Z,77.40
2023-01-17T04:45:36.660Z,77.57
2023-01-17T04:48:13.615Z,77.75
2023-01-17T04:50:42.611Z,77.51
2023-01-17T04:53:12.067Z,77.59
2023-01-17T04:55:50.737Z,77.16
2023-01-17T04:58:20.497Z,77.03
2023-01-17T05:00:51.871Z,77.54
2023-01-17T05:03:22.503Z,78.01
2023-01-17T05:05:51.696Z,78.16
2023-01-17T05:08:21.197Z,77.48
2023-01-17T05:10:50.439Z,77.38
2023-01-17T05:13:19.525Z,77.43
2023-01-17T05:15:49.363Z,77.85
2023-01-17T05:18:22.148Z,77.90
2023-01-17T05:20:54.312Z,77.72
2023-01-17T05:23:24.830Z,77.45
2023-01-17T05:25:57.130Z,77.06
2023-01-17T05:28:27.126Z,77.00
2023-01-17T05:30:56.324Z,77.02
2023-01-17T05:33:28.339Z,77.11
2023-01-17T05:35:57.326Z,77.63
2023-01-17T05:38:32.633Z,77.46
2023-01-17T05:41:04.510Z,76.94
2023-01-17T05:43:34.053Z,77.02
2023-01-17T05:46:14.162Z,76.82
2023-01-17T05:48:46.196Z,76.68
2023-01-17T05:51:18.311Z,77.02
2023-01-17T05:53:50.282Z,76.77
2023-01-17T05:56:19.188Z,77.16
2023-01-17T05:58:51.664Z,77.37
2023-01-17T06:01:24.314Z,77.15
2023-01-17T06:03:53.966Z,76.76
2023-01-17T06:06:26.442Z,76.47
2023-01-17T06:08:56.032Z,76.84
2023-01-17T06:11:26.273Z,77.57
2023-01-17T06:13:58.256Z,77.42
2023-01-17T06:16:27.335Z,77.01
2023-01-17T06:18:56.270Z,77.40
2023-01-17T06:21:25.361Z,77.18
2023-01-17T06:23:58.996Z,77.67
2023-01-17T06:26:27.884Z,77.76
2023-01-17T06:28:56.811Z,77.84
2023-01-17T06:31:31.821Z,77.44
2023-01-17T06:34:04.399Z,77.54
2023-01-17T06:36:34.716Z,78.06
2023-01-17T06:39:04.352Z,78.22
2023-01-17T06:41:36.860Z,78.14
2023-01-17T06:44:12.759Z,77.87
2023-01-17T06:46:50.931Z,77.90
2023-01-17T06:49:20.051Z,77.95
2023-01-17T06:51:49.218Z,78.29
2023-01-17T06:54:21.753Z,77.95
2023-01-17T06:56:53.679Z,77.80
2023-01-17T06:59:22.758Z,77.39
2023-01-17T07:01:51.970Z,77.39
2023-01-17T07:04:21.404Z,77.71
2023-01-17T07:06:50.814Z,77.44
2023-01-17T07:09:42.610Z,77.16
2023-01-17T07:12:12.727Z,76.98
2023-01-17T07:14:44.396Z,76.95
2023-01-17T07:17:19.341Z,77.36
2023-01-17T07:19:48.412Z,77.58
2023-01-17T07:22:20.478Z,77.49
2023-01-17T07:24:50.220Z,77.42
2023-01-17T07:27:19.525Z,77.09
2023-01-17T07:29:49.314Z,76.90
2023-01-17T07:32:19.112Z,77.15
2023-01-17T07:34:48.136Z,77.63
2023-01-17T07:37:22.572Z,78.12
2023-01-17T07:39:54.686Z,77.82
2023-01-17T07:42:25.767Z,77.39
2023-01-17T07:44:57.625Z,77.14
2023-01-17T07:47:27.243Z,77.71
2023-01-17T07:49:57.128Z,77.99
2023-01-17T07:52:26.173Z,77.42
2023-01-17T07:54:58.424Z,77.17
2023-01-17T07:57:39.934Z,77.15
2023-01-17T08:00:27.124Z,77.03
2023-01-17T08:03:00.944Z,77.44
2023-01-17T08:05:33.621Z,77.31
2023-01-17T08:08:03.430Z,77.04
2023-01-17T08:10:32.622Z,76.82
2023-01-17T08:13:01.759Z,76.95
2023-01-17T08:15:46.852Z,77.25
2023-01-17T08:18:16.334Z,77.37
2023-01-17T08:20:46.799Z,77.08
2023-01-17T08:23:19.357Z,76.55
2023-01-17T08:25:48.624Z,76.36
2023-01-17T08:28:20.035Z,76.35
2023-01-17T08:30:51.935Z,76.89
2023-01-17T08:33:21.597Z,77.24
2023-01-17T08:35:54.074Z,76.60
2023-01-17T08:38:23.524Z,76.21
2023-01-17T08:40:52.360Z,76.08
2023-01-17T08:43:21.639Z,76.15
2023-01-17T08:45:55.601Z,76.56
2023-01-17T08:48:27.585Z,76.26
2023-01-17T08:51:04.848Z,76.02
2023-01-17T08:53:34.192Z,75.50
2023-01-17T08:56:06.367Z,75.43
2023-01-17T08:58:36.501Z,75.24
2023-01-17T09:01:07.873Z,75.50
2023-01-17T09:03:40.837Z,75.33
2023-01-17T09:06:21.423Z,74.80
2023-01-17T09:08:54.304Z,74.39
2023-01-17T09:11:23.827Z,73.97
2023-01-17T09:13:53.869Z,73.97
2023-01-17T09:16:22.927Z,74.14
2023-01-17T09:18:56.129Z,74.26
2023-01-17T09:21:25.767Z,73.35
2023-01-17T09:23:56.805Z,72.98
2023-01-17T09:26:28.896Z,72.50
2023-01-17T09:29:02.326Z,72.68
2023-01-17T09:31:37.226Z,72.89
2023-01-17T09:34:07.969Z,72.53
2023-01-17T09:36:45.868Z,72.59
2023-01-17T09:39:15.458Z,72.59
2023-01-17T09:41:47.272Z,72.71
2023-01-17T09:44:30.864Z,72.67
2023-01-17T09:47:06.830Z,72.63
2023-01-17T09:49:48.819Z,71.80
2023-01-17T09:52:22.666Z,71.29
2023-01-17T09:54:52.848Z,70.54
2023-01-17T09:57:42.797Z,70.23
2023-01-17T10:00:31.816Z,70.41
2023-01-17T10:03:50.920Z,70.58
2023-01-17T10:06:29.595Z,70.44
2023-01-17T10:09:25.891Z,70.04
2023-01-17T10:12:21.803Z,69.71
2023-01-17T10:15:15.110Z,68.85
2023-01-17T10:17:54.251Z,68.69
2023-01-17T10:20:42.640Z,68.38
2023-01-17T10:23:37.913Z,69.30
2023-01-17T10:26:23.408Z,68.77
2023-01-17T10:29:02.624Z,68.69
2023-01-17T10:31:42.332Z,67.91
2023-01-17T10:34:18.376Z,67.96
2023-01-17T10:36:51.608Z,67.06
2023-01-17T10:39:23.536Z,66.78
2023-01-17T10:41:55.749Z,67.11
2023-01-17T10:44:33.094Z,66.74
2023-01-17T10:47:12.788Z,66.08
2023-01-17T10:49:52.311Z,66.14
2023-01-17T10:52:33.562Z,66.36
2023-01-17T10:55:34.416Z,66.21
2023-01-17T10:58:08.759Z,65.97
2023-01-17T11:00:45.029Z,66.13
2023-01-17T11:03:20.943Z,65.25
2023-01-17T11:06:20.774Z,65.39
2023-01-17T11:08:55.739Z,65.28
2023-01-17T11:11:30.423Z,65.05
2023-01-17T11:14:01.811Z,64.54
2023-01-17T11:16:36.695Z,63.73
2023-01-17T11:19:16.564Z,64.05
2023-01-17T11:21:58.112Z,63.73
2023-01-17T11:24:32.764Z,63.26
2023-01-17T11:27:07.139Z,63.27
2023-01-17T11:29:38.373Z,63.81
2023-01-17T11:32:31.494Z,64.18
2023-01-17T11:35:14.854Z,64.08
2023-01-17T11:37:51.717Z,64.09
2023-01-17T11:40:46.101Z,64.50
2023-01-17T11:43:28.718Z,64.32
2023-01-17T11:46:17.262Z,63.87
2023-01-17T11:48:51.439Z,62.69
2023-01-17T11:51:28.660Z,62.85
2023-01-17T11:54:13.524Z,62.43
2023-01-17T11:56:51.631Z,61.84
2023-01-17T11:59:29.407Z,61.66
2023-01-17T12:02:21.424Z,61.52
2023-01-17T12:05:02.661Z,60.07
2023-01-17T12:07:48.453Z,58.96
2023-01-17T12:10:23.547Z,58.05
2023-01-17T12:13:20.571Z,59.04
2023-01-17T12:16:01.526Z,59.10
2023-01-17T12:18:50.218Z,59.30
2023-01-17T12:21:28.474Z,58.91
2023-01-17T12:24:23.413Z,58.59
2023-01-17T12:27:06.606Z,59.14
2023-01-17T12:30:04.008Z,59.44
2023-01-17T12:32:52.510Z,59.19
2023-01-17T12:35:27.334Z,59.02
2023-01-17T12:38:05.216Z,58.83
2023-01-17T12:40:45.648Z,58.17
2023-01-17T12:43:22.584Z,58.57
2023-01-17T12:45:54.593Z,58.13
2023-01-17T12:48:30.219Z,57.86
2023-01-17T12:51:19.003Z,57.76
2023-01-17T12:53:56.195Z,58.57
2023-01-17T12:56:30.867Z,58.84
2023-01-17T12:59:15.960Z,58.22
2023-01-17T13:01:57.083Z,58.35
2023-01-17T13:04:30.610Z,58.83
2023-01-17T13:07:13.131Z,58.31
2023-01-17T13:09:44.452Z,57.84
2023-01-17T13:12:26.631Z,58.21
2023-01-17T13:14:58.696Z,58.81
2023-01-17T13:17:38.760Z,59.29
2023-01-17T13:20:28.725Z,59.51
2023-01-17T13:23:05.995Z,59.50
2023-01-17T13:25:51.369Z,59.32
2023-01-17T13:28:35.474Z,59.99
2023-01-17T13:31:33.208Z,59.47
2023-01-17T13:34:50.508Z,59.09
2023-01-17T13:37:43.820Z,58.18
2023-01-17T13:40:39.029Z,58.21
2023-01-17T13:43:16.279Z,58.52
2023-01-17T13:45:55.167Z,57.29
2023-01-17T13:48:34.066Z,57.39
2023-01-17T13:51:07.718Z,56.79
2023-01-17T13:53:58.538Z,56.63
2023-01-17T13:56:35.960Z,57.70
2023-01-17T13:59:28.611Z,58.19
2023-01-17T14:02:01.000Z,59.22
2023-01-17T14:05:20.094Z,60.62
2023-01-17T14:07:58.878Z,62.08
2023-01-17T14:10:37.257Z,62.80
2023-01-17T14:13:25.599Z,63.56
2023-01-17T14:16:04.917Z,62.45
2023-01-17T14:18:41.962Z,62.27
2023-01-17T14:21:26.177Z,61.53
2023-01-17T14:24:04.150Z,60.72
2023-01-17T14:26:41.003Z,61.26
2023-01-17T14:29:52.024Z,61.16
2023-01-17T14:32:24.163Z,60.69
2023-01-17T14:35:02.907Z,61.22
2023-01-17T14:37:48.659Z,61.47
2023-01-17T14:40:26.105Z,61.57
2023-01-17T14:43:01.550Z,62.28
2023-01-17T14:45:33.357Z,62.88
2023-01-17T14:48:06.195Z,63.09
2023-01-17T14:50:39.246Z,63.27
2023-01-17T14:53:17.121Z,63.57
2023-01-17T14:55:59.761Z,63.83
2023-01-17T14:58:31.263Z,64.05
2023-01-17T15:01:03.229Z,63.97
2023-01-17T15:03:45.897Z,63.89
2023-01-17T15:06:20.001Z,64.21
2023-01-17T15:08:53.742Z,64.35
2023-01-17T15:11:25.671Z,64.57
2023-01-17T15:14:01.069Z,64.76
2023-01-17T15:16:37.130Z,64.83
2023-01-17T15:19:16.298Z,64.94
2023-01-17T15:21:54.233Z,64.97
2023-01-17T15:24:26.984Z,65.22
2023-01-17T15:26:57.037Z,65.84
2023-01-17T15:29:29.156Z,66.12
2023-01-17T15:31:59.713Z,66.19
2023-01-17T15:34:30.753Z,65.63
2023-01-17T15:37:03.385Z,65.72
2023-01-17T15:39:35.485Z,65.48
2023-01-17T15:42:07.807Z,65.67
2023-01-17T15:44:47.921Z,65.72
2023-01-17T15:47:31.454Z,65.75
2023-01-17T15:50:05.912Z,65.98
2023-01-17T15:52:48.837Z,65.92
2023-01-17T15:55:26.969Z,66.17
2023-01-17T15:57:56.764Z,66.12
2023-01-17T16:00:36.350Z,66.08
2023-01-17T16:03:22.494Z,66.27
2023-01-17T16:05:57.295Z,66.75
2023-01-17T16:08:39.313Z,66.75
2023-01-17T16:11:16.988Z,66.68
2023-01-17T16:13:49.757Z,66.48
2023-01-17T16:16:25.300Z,66.51
2023-01-17T16:19:00.692Z,66.60
2023-01-17T16:21:31.434Z,67.26
2023-01-17T16:24:02.486Z,67.56
2023-01-17T16:26:32.032Z,68.04
2023-01-17T16:29:01.446Z,69.51
2023-01-17T16:31:33.562Z,68.80
2023-01-17T16:34:03.133Z,68.92
2023-01-17T16:36:34.470Z,69.35
2023-01-17T16:39:04.310Z,68.92
2023-01-17T16:41:33.256Z,68.42
2023-01-17T16:44:04.816Z,68.25
2023-01-17T16:46:37.568Z,68.53
2023-01-17T16:49:09.708Z,69.73
2023-01-17T16:51:39.257Z,68.73
2023-01-17T16:54:08.378Z,69.00
2023-01-17T16:56:37.680Z,69.66
2023-01-17T16:59:10.326Z,69.59
2023-01-17T17:01:42.823Z,70.11
2023-01-17T17:04:13.333Z,69.79
2023-01-17T17:06:48.563Z,69.87
2023-01-17T17:09:18.061Z,69.71
2023-01-17T17:11:47.825Z,70.10
2023-01-17T17:14:17.544Z,70.54
2023-01-17T17:16:47.563Z,70.50
2023-01-17T17:19:17.061Z,70.28
2023-01-17T17:21:46.787Z,69.71
2023-01-17T17:24:17.270Z,69.55
2023-01-17T17:26:46.464Z,69.27
2023-01-17T17:29:22.101Z,69.17
2023-01-17T17:31:51.462Z,69.77
2023-01-17T17:34:22.763Z,70.66
2023-01-17T17:36:53.193Z,70.75
2023-01-17T17:39:22.588Z,69.93
2023-01-17T17:41:55.049Z,70.29
2023-01-17T17:44:28.167Z,70.20
2023-01-17T17:47:00.107Z,69.90
2023-01-17T17:49:32.370Z,70.13
2023-01-17T17:52:06.591Z,71.34
2023-01-17T17:54:36.312Z,71.47
2023-01-17T17:57:06.996Z,71.23
2023-01-17T17:59:39.619Z,70.95
2023-01-17T18:02:10.527Z,70.90
2023-01-17T18:04:39.939Z,71.08
2023-01-17T18:07:09.767Z,71.07
2023-01-17T18:09:51.360Z,71.17
2023-01-17T18:12:27.060Z,71.35
2023-01-17T18:14:56.037Z,72.73
2023-01-17T18:17:25.636Z,72.94
2023-01-17T18:19:55.020Z,73.22
2023-01-17T18:22:24.676Z,72.22
2023-01-17T18:24:54.132Z,71.55
2023-01-17T18:27:27.014Z,71.56
2023-01-17T18:29:56.516Z,72.29
2023-01-17T18:32:26.547Z,72.53
2023-01-17T18:34:55.633Z,73.18
2023-01-17T18:37:27.320Z,72.47
2023-01-17T18:39:56.797Z,72.12
2023-01-17T18:42:31.965Z,71.77
2023-01-17T18:45:04.018Z,71.27
2023-01-17T18:47:38.703Z,71.44
2023-01-17T18:50:09.977Z,71.60
2023-01-17T18:52:39.676Z,71.45
2023-01-17T18:55:10.155Z,71.74
2023-01-17T18:57:39.416Z,72.07
2023-01-17T19:00:16.380Z,71.81
2023-01-17T19:02:50.919Z,71.65
2023-01-17T19:05:21.140Z,71.88
2023-01-17T19:07:50.359Z,72.16
2023-01-17T19:10:19.947Z,72.51
2023-01-17T19:12:48.811Z,72.54
2023-01-17T19:15:17.698Z,72.15
2023-01-17T19:17:46.801Z,71.92
2023-01-17T19:20:19.266Z,71.75
2023-01-17T19:22:52.104Z,71.59
2023-01-17T19:25:22.840Z,71.61
2023-01-17T19:27:52.561Z,71.23
2023-01-17T19:30:22.416Z,71.31
2023-01-17T19:32:51.536Z,71.34
2023-01-17T19:35:24.171Z,71.42
2023-01-17T19:37:55.385Z,71.37
2023-01-17T19:40:27.995Z,71.37
2023-01-17T19:42:57.662Z,71.75
2023-01-17T19:45:26.651Z,71.92
2023-01-17T19:47:57.078Z,72.31
2023-01-17T19:50:29.561Z,72.62
2023-01-17T19:52:58.975Z,73.25
2023-01-17T19:55:28.347Z,73.57
2023-01-17T19:58:00.371Z,73.10
2023-01-17T20:00:30.492Z,72.34
2023-01-17T20:03:05.115Z,72.69
2023-01-17T20:05:37.715Z,72.71
2023-01-17T20:08:09.244Z,72.14
2023-01-17T20:10:38.625Z,71.88
2023-01-17T20:13:07.685Z,71.81
2023-01-17T20:15:40.693Z,71.91
2023-01-17T20:18:35.181Z,72.41
2023-01-17T20:21:09.541Z,72.29
2023-01-17T20:23:41.721Z,72.47
2023-01-17T20:26:11.743Z,72.93
2023-01-17T20:28:42.249Z,73.50
2023-01-17T20:31:14.010Z,73.39
2023-01-17T20:33:50.665Z,73.60
2023-01-17T20:36:22.242Z,73.24
2023-01-17T20:38:53.202Z,73.08
2023-01-17T20:41:24.771Z,72.95
2023-01-17T20:43:58.563Z,73.06
2023-01-17T20:46:30.776Z,72.87
2023-01-17T20:49:00.511Z,73.01
2023-01-17T20:51:30.928Z,72.86
2023-01-17T20:54:03.022Z,72.84
2023-01-17T20:56:34.563Z,72.88
2023-01-17T20:59:11.736Z,72.94
2023-01-17T21:01:43.255Z,73.58
2023-01-17T21:04:14.115Z,74.27
2023-01-17T21:06:51.195Z,74.05
2023-01-17T21:09:21.638Z,73.66
2023-01-17T21:11:51.448Z,73.47
2023-01-17T21:14:21.823Z,73.26
2023-01-17T21:16:51.704Z,73.03
2023-01-17T21:19:21.376Z,73.07
2023-01-17T21:21:55.742Z,73.28
2023-01-17T21:24:25.502Z,73.13
2023-01-17T21:26:54.746Z,73.26
2023-01-17T21:29:28.329Z,73.74
2023-01-17T21:31:58.256Z,73.99
2023-01-17T21:34:31.445Z,73.55
2023-01-17T21:37:02.206Z,73.94
2023-01-17T21:39:32.303Z,73.50
2023-01-17T21:42:00.329Z,73.64
2023-01-17T21:44:35.758Z,73.96
2023-01-17T21:47:04.953Z,73.85
2023-01-17T21:49:36.661Z,73.54
2023-01-17T21:52:20.096Z,73.29
2023-01-17T21:55:07.623Z,73.18
2023-01-17T21:57:55.654Z,73.15
2023-01-17T22:00:25.072Z,73.19
2023-01-17T22:02:54.107Z,73.13
2023-01-17T22:05:23.264Z,73.05
2023-01-17T22:08:14.921Z,73.40
2023-01-17T22:10:47.497Z,73.50
2023-01-17T22:13:20.255Z,73.54
2023-01-17T22:15:59.831Z,73.66
2023-01-17T22:18:30.256Z,73.98
2023-01-17T22:21:03.401Z,73.86
2023-01-17T22:23:35.698Z,73.82
2023-01-17T22:26:09.498Z,74.53
2023-01-17T22:28:42.529Z,74.79
2023-01-17T22:31:22.792Z,74.85
2023-01-17T22:33:57.745Z,74.56
2023-01-17T22:36:32.327Z,74.14
2023-01-17T22:39:04.974Z,74.04
2023-01-17T22:41:40.964Z,73.69
2023-01-17T22:44:22.765Z,74.34
2023-01-17T22:46:52.614Z,73.80
2023-01-17T22:49:23.057Z,73.74
2023-01-17T22:51:52.238Z,74.51
2023-01-17T22:54:22.139Z,74.25
2023-01-17T22:56:54.255Z,74.61
2023-01-17T22:59:29.697Z,75.59
2023-01-17T23:01:59.138Z,75.08
2023-01-17T23:04:28.703Z,75.04
2023-01-17T23:06:58.223Z,74.46
2023-01-17T23:09:27.991Z,74.43
2023-01-17T23:11:57.222Z,74.53
2023-01-17T23:14:51.101Z,74.83
2023-01-17T23:17:42.797Z,75.16
2023-01-17T23:20:21.258Z,75.66
2023-01-17T23:22:51.375Z,76.24
2023-01-17T23:25:25.538Z,75.81
2023-01-17T23:28:18.533Z,76.68
2023-01-17T23:30:49.728Z,76.93
2023-01-17T23:33:27.859Z,76.66
2023-01-17T23:35:57.245Z,76.69
2023-01-17T23:38:28.364Z,76.82
2023-01-17T23:41:24.383Z,77.69
2023-01-17T23:43:57.811Z,76.65
2023-01-17T23:46:28.237Z,76.17
2023-01-17T23:48:57.461Z,75.80
2023-01-17T23:51:26.908Z,75.64
2023-01-17T23:54:04.802Z,75.26
2023-01-17T23:56:37.605Z,75.65
2023-01-17T23:59:06.911Z,76.05
